Time;durP1;ratioP1;P1;durP2;ratioP2;P2;SDS_P1;SDS_P2;PMS_P1;PMS_P2;Temp;Humidity;BMP_temperature;BMP_pressure;BME280_temperature;BME280_humidity;BME280_pressure;Samples;Min_cycle;Max_cycle;Signal;HPM_P1;HPM_P2
2023/09/10 00:01:46;;;;;;;;;;;;;;;23.51;100.00;101606.63;5207977;28;19928;-74
2023/09/10 00:04:17;;;;;;;;;;;;;;;23.49;100.00;101605.19;5205784;28;19928;-74
2023/09/10 00:06:48;;;;;;;;;;;;;;;23.47;100.00;101605.38;5206785;28;19925;-74
2023/09/10 00:09:20;;;;;;;;;;;;;;;23.46;100.00;101609.09;5207064;28;19917;-74
2023/09/10 00:11:52;;;;;;;;;;;;;;;23.45;100.00;101607.44;5206039;28;20298;-74
2023/09/10 00:14:23;;;;;;;;;;;;;;;23.43;100.00;101609.47;5207565;28;20270;-74
2023/09/10 00:16:54;;;;;;;;;;;;;;;23.44;100.00;101608.44;5206418;28;19917;-74
2023/09/10 00:19:25;;;;;;;;;;;;;;;23.42;100.00;101602.47;5204440;28;19928;-74
2023/09/10 00:21:56;;;;;;;;;;;;;;;23.39;100.00;101605.53;5206474;28;20399;-74
2023/09/10 00:24:27;;;;;;;;;;;;;;;23.38;100.00;101603.91;5206474;28;19972;-74
2023/09/10 00:26:59;;;;;;;;;;;;;;;23.35;100.00;101600.78;5206555;28;20333;-74
2023/09/10 00:29:30;;;;;;;;;;;;;;;23.33;100.00;101603.66;5206380;28;19925;-75
2023/09/10 00:32:01;;;;;;;;;;;;;;;23.30;100.00;101602.22;5206510;28;19917;-74
2023/09/10 00:34:33;;;;;;;;;;;;;;;23.25;100.00;101598.44;5206444;28;20011;-74
2023/09/10 00:37:04;;;;;;;;;;;;;;;23.22;100.00;101598.84;5204652;28;19924;-74
2023/09/10 00:39:35;;;;;;;;;;;;;;;23.22;100.00;101596.16;5207433;28;19925;-75
2023/09/10 00:42:07;;;;;;;;;;;;;;;23.17;100.00;101594.09;5205411;28;19953;-74
2023/09/10 00:44:38;;;;;;;;;;;;;;;23.17;100.00;101593.25;5206790;28;19975;-74
2023/09/10 00:47:10;;;;;;;;;;;;;;;23.14;100.00;101591.78;5204565;28;19925;-74
2023/09/10 00:49:41;;;;;;;;;;;;;;;23.11;100.00;101600.22;5205547;28;19924;-75
2023/09/10 00:52:13;;;;;;;;;;;;;;;23.10;100.00;101597.72;5205987;28;19917;-74
2023/09/10 00:54:44;;;;;;;;;;;;;;;23.08;100.00;101599.78;5204150;28;19947;-74
2023/09/10 00:57:16;;;;;;;;;;;;;;;23.06;100.00;101597.28;5205108;28;19924;-74
2023/09/10 00:59:47;;;;;;;;;;;;;;;23.02;100.00;101602.19;5206403;28;19927;-74
2023/09/10 01:02:20;;;;;;;;;;;;;;;22.98;100.00;101590.25;5204980;28;19918;-75
2023/09/10 01:04:51;;;;;;;;;;;;;;;22.98;100.00;101595.59;5205805;28;19984;-74
2023/09/10 01:07:22;;;;;;;;;;;;;;;22.96;100.00;101596.81;5205170;28;20431;-74
2023/09/10 01:09:53;;;;;;;;;;;;;;;22.94;100.00;101593.50;5206186;28;19940;-74
2023/09/10 01:12:35;;;;;;;;;;;;;;;22.93;100.00;101587.34;5204049;28;19921;-74
2023/09/10 01:15:06;;;;;;;;;;;;;;;22.87;100.00;101589.91;5205943;28;19930;-74
2023/09/10 01:17:53;;;;;;;;;;;;;;;22.84;100.00;101588.44;5205970;28;19932;-73
2023/09/10 01:20:38;;;;;;;;;;;;;;;22.83;100.00;101592.13;5205307;28;19921;-73
2023/09/10 01:23:12;;;;;;;;;;;;;;;22.82;100.00;101593.16;5205951;28;19917;-74
2023/09/10 01:25:44;;;;;;;;;;;;;;;22.79;100.00;101591.69;5205606;28;20267;-73
2023/09/10 01:28:16;;;;;;;;;;;;;;;22.77;100.00;101593.75;5204182;28;20391;-74
2023/09/10 01:30:47;;;;;;;;;;;;;;;22.72;100.00;101588.13;5206076;28;19929;-73
2023/09/10 01:33:34;;;;;;;;;;;;;;;22.70;100.00;101592.88;5206161;28;19921;-73
2023/09/10 01:36:09;;;;;;;;;;;;;;;22.65;100.00;101589.09;5205094;28;19925;-74
2023/09/10 01:38:43;;;;;;;;;;;;;;;22.64;100.00;101595.47;5204270;28;19924;-74
2023/09/10 01:41:19;;;;;;;;;;;;;;;22.55;100.00;101589.44;5205050;28;19952;-74
2023/09/10 01:43:51;;;;;;;;;;;;;;;22.52;100.00;101587.16;5204660;28;20327;-73
2023/09/10 01:46:23;;;;;;;;;;;;;;;22.47;100.00;101600.25;5203347;28;20019;-74
2023/09/10 01:48:54;;;;;;;;;;;;;;;22.45;100.00;101596.94;5204940;28;20455;-73
2023/09/10 01:51:25;;;;;;;;;;;;;;;22.44;100.00;101597.94;5205255;28;19921;-73
2023/09/10 01:53:57;;;;;;;;;;;;;;;22.39;100.00;101598.53;5205273;28;19924;-75
2023/09/10 01:56:28;;;;;;;;;;;;;;;22.39;100.00;101600.34;5204500;28;20020;-74
2023/09/10 01:58:59;;;;;;;;;;;;;;;22.41;100.00;101601.00;5203653;28;19921;-74
2023/09/10 02:01:30;;;;;;;;;;;;;;;22.36;100.00;101601.56;5207414;28;19913;-74
2023/09/10 02:04:02;;;;;;;;;;;;;;;22.33;100.00;101601.94;5208569;28;20032;-74
2023/09/10 02:06:34;;;;;;;;;;;;;;;22.33;100.00;101602.75;5209417;28;20378;-73
2023/09/10 02:09:05;;;;;;;;;;;;;;;22.33;100.00;101607.28;5208089;28;19932;-74
2023/09/10 02:11:36;;;;;;;;;;;;;;;22.34;100.00;101603.59;5210020;28;20004;-74
2023/09/10 02:14:07;;;;;;;;;;;;;;;22.33;100.00;101608.09;5209686;28;20055;-74
2023/09/10 02:16:39;;;;;;;;;;;;;;;22.35;100.00;101605.25;5207967;28;19921;-75
2023/09/10 02:19:10;;;;;;;;;;;;;;;22.34;100.00;101607.09;5207626;28;20069;-74
2023/09/10 02:21:41;;;;;;;;;;;;;;;22.32;100.00;101606.47;5208151;28;19925;-74
2023/09/10 02:24:12;;;;;;;;;;;;;;;22.30;100.00;101608.47;5208925;28;19983;-74
2023/09/10 02:26:44;;;;;;;;;;;;;;;22.29;100.00;101606.00;5209205;28;19918;-74
2023/09/10 02:29:15;;;;;;;;;;;;;;;22.28;100.00;101602.53;5208097;28;19928;-74
2023/09/10 02:31:46;;;;;;;;;;;;;;;22.29;100.00;101603.34;5208469;28;20571;-74
2023/09/10 02:34:17;;;;;;;;;;;;;;;22.27;100.00;101608.03;5208264;28;20210;-75
2023/09/10 02:36:48;;;;;;;;;;;;;;;22.26;100.00;101606.38;5208717;28;19972;-75
2023/09/10 02:39:20;;;;;;;;;;;;;;;22.25;100.00;101599.41;5208543;28;20222;-74
2023/09/10 02:41:52;;;;;;;;;;;;;;;22.25;100.00;101594.06;5208040;28;20095;-73
2023/09/10 02:44:23;;;;;;;;;;;;;;;22.29;100.00;101608.69;5208855;28;20493;-74
2023/09/10 02:46:54;;;;;;;;;;;;;;;22.27;100.00;101600.84;5207390;28;19921;-73
2023/09/10 02:49:25;;;;;;;;;;;;;;;22.32;100.00;101600.28;5207464;28;20349;-74
2023/09/10 02:51:57;;;;;;;;;;;;;;;22.33;100.00;101599.28;5207779;28;19960;-73
2023/09/10 02:54:28;;;;;;;;;;;;;;;22.33;100.00;101605.44;5208509;28;19995;-74
2023/09/10 02:56:59;;;;;;;;;;;;;;;22.32;100.00;101606.47;5208454;28;19987;-74
2023/09/10 02:59:31;;;;;;;;;;;;;;;22.31;100.00;101602.16;5206954;28;19928;-74
2023/09/10 03:02:02;;;;;;;;;;;;;;;22.29;100.00;101601.50;5207564;28;20010;-73
2023/09/10 03:04:33;;;;;;;;;;;;;;;22.29;100.00;101603.34;5207896;28;19972;-74
2023/09/10 03:07:04;;;;;;;;;;;;;;;22.28;100.00;101609.69;5206323;28;19921;-74
2023/09/10 03:09:35;;;;;;;;;;;;;;;22.27;100.00;101606.19;5208108;28;20591;-74
2023/09/10 03:12:26;;;;;;;;;;;;;;;22.27;100.00;101603.50;5207523;28;20224;-73
2023/09/10 03:14:57;;;;;;;;;;;;;;;22.22;100.00;101599.75;5207956;28;19967;-74
2023/09/10 03:17:28;;;;;;;;;;;;;;;22.26;100.00;101603.72;5206411;28;19917;-74
2023/09/10 03:19:59;;;;;;;;;;;;;;;22.29;100.00;101606.00;5207693;28;20346;-74
2023/09/10 03:22:31;;;;;;;;;;;;;;;22.29;100.00;101601.50;5207726;28;20470;-75
2023/09/10 03:25:02;;;;;;;;;;;;;;;22.28;100.00;101601.69;5206696;28;19956;-75
2023/09/10 03:27:33;;;;;;;;;;;;;;;22.24;100.00;101597.75;5207393;28;19921;-73
2023/09/10 03:30:05;;;;;;;;;;;;;;;22.24;100.00;101601.25;5207414;28;19917;-74
2023/09/10 03:32:36;;;;;;;;;;;;;;;22.22;100.00;101594.44;5207005;28;19968;-75
2023/09/10 03:35:08;;;;;;;;;;;;;;;22.27;100.00;101597.34;5207090;28;19921;-74
2023/09/10 03:37:39;;;;;;;;;;;;;;;22.27;100.00;101592.00;5189874;28;19960;-75
2023/09/10 03:40:10;;;;;;;;;;;;;;;22.29;100.00;101600.66;5207501;28;20298;-74
2023/09/10 03:42:41;;;;;;;;;;;;;;;22.27;100.00;101594.69;5207986;28;19923;-73
2023/09/10 03:45:12;;;;;;;;;;;;;;;22.26;100.00;101595.69;5205847;28;19917;-73
2023/09/10 03:47:44;;;;;;;;;;;;;;;22.23;100.00;101596.06;5207275;28;20281;-73
2023/09/10 03:50:15;;;;;;;;;;;;;;;22.22;100.00;101597.09;5207523;28;20012;-74
2023/09/10 03:52:46;;;;;;;;;;;;;;;22.22;100.00;101595.25;5207349;28;20434;-73
2023/09/10 03:55:18;;;;;;;;;;;;;;;22.22;100.00;101599.75;5206764;28;19917;-74
2023/09/10 03:57:49;;;;;;;;;;;;;;;22.19;100.00;101589.47;5205157;28;20020;-74
2023/09/10 04:00:20;;;;;;;;;;;;;;;22.19;100.00;101592.13;5207090;28;19960;-73
2023/09/10 04:02:51;;;;;;;;;;;;;;;22.18;100.00;101588.63;5206450;28;19917;-73
2023/09/10 04:05:23;;;;;;;;;;;;;;;22.16;100.00;101582.69;5206635;28;20007;-74
2023/09/10 04:07:54;;;;;;;;;;;;;;;22.15;100.00;101583.66;5206314;28;20268;-75
2023/09/10 04:10:27;;;;;;;;;;;;;;;22.13;100.00;101579.53;5206013;28;20346;-74
2023/09/10 04:12:58;;;;;;;;;;;;;;;22.10;100.00;101578.06;5206742;28;20080;-74
2023/09/10 04:15:29;;;;;;;;;;;;;;;22.09;100.00;101577.22;5205774;28;20346;-73
2023/09/10 04:18:00;;;;;;;;;;;;;;;22.08;100.00;101582.75;5206437;28;19976;-75
2023/09/10 04:20:32;;;;;;;;;;;;;;;22.07;100.00;101581.91;5206473;28;19917;-74
2023/09/10 04:23:03;;;;;;;;;;;;;;;22.08;100.00;101582.75;5206420;28;19917;-75
2023/09/10 04:25:35;;;;;;;;;;;;;;;22.07;100.00;101571.25;5205710;28;20434;-75
2023/09/10 04:28:06;;;;;;;;;;;;;;;22.07;100.00;101584.59;5205382;28;19967;-73
2023/09/10 04:30:39;;;;;;;;;;;;;;;22.04;100.00;101576.94;5205771;28;19914;-74
2023/09/10 04:33:11;;;;;;;;;;;;;;;22.03;100.00;101574.47;5187649;28;19975;-74
2023/09/10 04:35:57;;;;;;;;;;;;;;;22.01;100.00;101577.34;5205092;28;19917;-74
2023/09/10 04:38:28;;;;;;;;;;;;;;;21.98;100.00;101569.72;5206039;28;19921;-74
2023/09/10 04:40:59;;;;;;;;;;;;;;;21.96;100.00;101576.25;5205906;28;19941;-73
2023/09/10 04:43:30;;;;;;;;;;;;;;;21.96;100.00;101584.25;5206100;28;19960;-74
2023/09/10 04:46:01;;;;;;;;;;;;;;;21.96;100.00;101586.91;5204842;28;20275;-74
2023/09/10 04:48:33;;;;;;;;;;;;;;;21.94;100.00;101584.44;5205428;28;19994;-75
2023/09/10 04:51:04;;;;;;;;;;;;;;;21.93;100.00;101579.28;5204983;28;19968;-75
2023/09/10 04:53:35;;;;;;;;;;;;;;;21.92;100.00;101580.28;5205353;28;19913;-75
2023/09/10 04:56:07;;;;;;;;;;;;;;;21.90;100.00;101583.16;5200052;28;19923;-73
2023/09/10 04:58:38;;;;;;;;;;;;;;;21.89;100.00;101586.81;5190582;28;19927;-75
2023/09/10 05:01:09;;;;;;;;;;;;;;;21.88;100.00;101579.00;5193262;28;19983;-74
2023/09/10 05:03:43;;;;;;;;;;;;;;;21.86;100.00;101589.88;5193766;28;19921;-75
2023/09/10 05:06:14;;;;;;;;;;;;;;;21.85;100.00;101588.22;5205769;28;19942;-74
2023/09/10 05:08:45;;;;;;;;;;;;;;;21.83;100.00;101595.59;5204793;28;20475;-73
2023/09/10 05:11:17;;;;;;;;;;;;;;;21.80;100.00;101598.63;5204151;28;19924;-75
2023/09/10 05:13:49;;;;;;;;;;;;;;;21.81;100.00;101597.59;5207172;28;20363;-74
2023/09/10 05:16:20;;;;;;;;;;;;;;;21.78;100.00;101598.81;5206533;28;19917;-74
2023/09/10 05:18:52;;;;;;;;;;;;;;;21.77;100.00;101601.66;5205705;28;19922;-74
2023/09/10 05:21:24;;;;;;;;;;;;;;;21.75;100.00;101596.50;5204588;28;19921;-74
2023/09/10 05:23:55;;;;;;;;;;;;;;;21.75;100.00;101601.03;5203660;28;20408;-74
2023/09/10 05:26:26;;;;;;;;;;;;;;;21.76;100.00;101600.84;5205085;28;19940;-75
2023/09/10 05:28:57;;;;;;;;;;;;;;;21.74;100.00;101594.84;5205320;28;20298;-74
2023/09/10 05:31:29;;;;;;;;;;;;;;;21.75;100.00;101603.69;5198834;28;19917;-75
2023/09/10 05:34:00;;;;;;;;;;;;;;;21.75;100.00;101595.69;5203228;28;19922;-74
2023/09/10 05:36:31;;;;;;;;;;;;;;;21.77;100.00;101599.81;5204315;28;19913;-74
2023/09/10 05:39:02;;;;;;;;;;;;;;;21.80;100.00;101604.78;5204136;28;19940;-73
2023/09/10 05:41:34;;;;;;;;;;;;;;;21.80;100.00;101601.28;5186542;28;19913;-75
2023/09/10 05:44:05;;;;;;;;;;;;;;;21.81;100.00;101602.94;5203981;28;19944;-74
2023/09/10 05:46:36;;;;;;;;;;;;;;;21.83;100.00;101609.75;5204220;28;20371;-74
2023/09/10 05:49:08;;;;;;;;;;;;;;;21.86;100.00;101606.72;5202172;28;19984;-73
2023/09/10 05:51:39;;;;;;;;;;;;;;;21.90;100.00;101599.16;5204361;28;19917;-74
2023/09/10 05:54:10;;;;;;;;;;;;;;;21.91;100.00;101605.31;5204811;28;19920;-74
2023/09/10 05:56:41;;;;;;;;;;;;;;;21.94;100.00;101602.28;5185939;28;19928;-73
2023/09/10 05:59:12;;;;;;;;;;;;;;;21.97;100.00;101608.09;5205057;28;19920;-75
2023/09/10 06:01:43;;;;;;;;;;;;;;;22.01;100.00;101611.19;5205868;28;19917;-74
2023/09/10 06:04:15;;;;;;;;;;;;;;;22.04;100.00;101611.63;5204431;28;19918;-74
2023/09/10 06:06:46;;;;;;;;;;;;;;;22.10;100.00;101615.41;5203331;28;20361;-75
2023/09/10 06:09:17;;;;;;;;;;;;;;;22.10;100.00;101618.91;5203772;28;20036;-74
2023/09/10 06:11:49;;;;;;;;;;;;;;;22.13;100.00;101623.06;5203940;28;19924;-72
2023/09/10 06:14:20;;;;;;;;;;;;;;;22.16;100.00;101619.19;5203088;28;19925;-75
2023/09/10 06:16:51;;;;;;;;;;;;;;;22.20;100.00;101626.66;5203173;28;19924;-75
2023/09/10 06:19:22;;;;;;;;;;;;;;;22.23;100.00;101625.44;5201306;28;19917;-76
2023/09/10 06:21:54;;;;;;;;;;;;;;;22.27;100.00;101626.72;5203483;28;19917;-74
2023/09/10 06:24:25;;;;;;;;;;;;;;;22.33;100.00;101629.47;5203923;28;19932;-74
2023/09/10 06:26:56;;;;;;;;;;;;;;;22.37;100.00;101623.75;5203867;28;19917;-74
2023/09/10 06:29:27;;;;;;;;;;;;;;;22.43;100.00;101631.03;5202145;28;20367;-72
2023/09/10 06:31:58;;;;;;;;;;;;;;;22.50;100.00;101637.22;5202142;28;19928;-75
2023/09/10 06:34:30;;;;;;;;;;;;;;;22.59;100.00;101642.28;5203280;28;19922;-73
2023/09/10 06:37:01;;;;;;;;;;;;;;;22.59;100.00;101625.44;5203443;28;20398;-72
2023/09/10 06:39:38;;;;;;;;;;;;;;;22.69;100.00;101633.97;5203994;28;19917;-73
2023/09/10 06:42:10;;;;;;;;;;;;;;;22.76;100.00;101628.66;5202772;28;19928;-74
2023/09/10 06:44:44;;;;;;;;;;;;;;;22.86;100.00;101631.03;5204457;28;20189;-72
2023/09/10 06:47:16;;;;;;;;;;;;;;;22.93;100.00;101639.97;5205315;28;19944;-74
2023/09/10 06:49:47;;;;;;;;;;;;;;;23.00;100.00;101639.00;5207083;28;19917;-74
2023/09/10 06:52:18;;;;;;;;;;;;;;;23.10;100.00;101645.84;5208322;28;19962;-75
2023/09/10 06:54:49;;;;;;;;;;;;;;;23.17;100.00;101644.06;5206462;28;19921;-73
2023/09/10 06:57:21;;;;;;;;;;;;;;;23.26;100.00;101642.88;5207661;28;20021;-74
2023/09/10 06:59:52;;;;;;;;;;;;;;;23.34;100.00;101645.44;5207696;28;19941;-74
2023/09/10 07:02:25;;;;;;;;;;;;;;;23.44;100.00;101647.75;5206097;28;19996;-72
2023/09/10 07:04:56;;;;;;;;;;;;;;;23.54;100.00;101648.22;5207407;28;21374;-75
2023/09/10 07:07:27;;;;;;;;;;;;;;;23.60;100.00;101652.81;5206764;28;19948;-74
2023/09/10 07:09:58;;;;;;;;;;;;;;;23.73;100.00;101644.88;5190506;28;19921;-74
2023/09/10 07:12:29;;;;;;;;;;;;;;;23.84;100.00;101648.84;5207320;28;20409;-74
2023/09/10 07:15:01;;;;;;;;;;;;;;;23.96;100.00;101649.91;5207716;28;19984;-72
2023/09/10 07:17:33;;;;;;;;;;;;;;;24.08;100.00;101652.03;5206788;28;19922;-74
2023/09/10 07:20:04;;;;;;;;;;;;;;;24.22;100.00;101656.41;5206463;28;20417;-75
2023/09/10 07:22:35;;;;;;;;;;;;;;;24.33;100.00;101641.63;5206559;28;20005;-72
2023/09/10 07:25:07;;;;;;;;;;;;;;;24.42;100.00;101645.78;5208125;28;20335;-74
2023/09/10 07:27:38;;;;;;;;;;;;;;;24.52;100.00;101651.59;5206965;28;19928;-75
2023/09/10 07:30:11;;;;;;;;;;;;;;;24.64;100.00;101652.66;5206415;28;20148;-73
2023/09/10 07:32:42;;;;;;;;;;;;;;;24.79;100.00;101657.81;5207581;28;19964;-72
2023/09/10 07:35:15;;;;;;;;;;;;;;;24.91;100.00;101656.19;5207180;28;20807;-75
2023/09/10 07:37:46;;;;;;;;;;;;;;;25.03;100.00;101647.53;5207087;28;19924;-75
2023/09/10 07:40:17;;;;;;;;;;;;;;;25.12;100.00;101643.66;5205894;28;20110;-74
2023/09/10 07:42:50;;;;;;;;;;;;;;;25.24;100.00;101652.72;5206807;28;20386;-73
2023/09/10 07:45:21;;;;;;;;;;;;;;;25.31;100.00;101644.66;5207079;28;20428;-75
2023/09/10 07:47:52;;;;;;;;;;;;;;;25.45;100.00;101651.63;5204543;28;19925;-75
2023/09/10 07:50:23;;;;;;;;;;;;;;;25.57;100.00;101651.81;5206507;28;19924;-75
2023/09/10 07:52:54;;;;;;;;;;;;;;;25.72;100.00;101661.31;5206937;28;19921;-75
2023/09/10 07:55:26;;;;;;;;;;;;;;;25.84;100.00;101650.75;5205724;28;20450;-75
2023/09/10 07:57:57;;;;;;;;;;;;;;;25.94;100.00;101659.19;5204145;28;19924;-73
2023/09/10 08:00:29;;;;;;;;;;;;;;;26.11;100.00;101661.41;5207027;28;19976;-74
2023/09/10 08:03:03;;;;;;;;;;;;;;;26.22;100.00;101659.91;5205734;28;19943;-73
2023/09/10 08:05:34;;;;;;;;;;;;;;;26.34;100.00;101663.56;5206042;28;20199;-73
2023/09/10 08:08:05;;;;;;;;;;;;;;;26.46;100.00;101669.09;5206411;28;19924;-74
2023/09/10 08:10:37;;;;;;;;;;;;;;;26.61;100.00;101669.63;5206537;28;19925;-75
2023/09/10 08:13:08;;;;;;;;;;;;;;;26.74;100.00;101676.78;5201434;28;20334;-75
2023/09/10 08:15:43;;;;;;;;;;;;;;;26.86;100.00;101678.56;5205366;28;19917;-75
2023/09/10 08:18:14;;;;;;;;;;;;;;;27.00;100.00;101671.22;5204781;28;20453;-74
2023/09/10 08:20:45;;;;;;;;;;;;;;;27.13;100.00;101670.31;5205200;28;19917;-75
2023/09/10 08:23:17;;;;;;;;;;;;;;;27.24;100.00;101661.53;5205552;28;19964;-74
2023/09/10 08:25:52;;;;;;;;;;;;;;;27.36;100.00;101670.53;5205269;28;20393;-75
2023/09/10 08:28:23;;;;;;;;;;;;;;;27.42;100.00;101664.22;5203951;28;19999;-75
2023/09/10 08:30:54;;;;;;;;;;;;;;;27.56;100.00;101658.72;5205041;28;20409;-75
2023/09/10 08:33:25;;;;;;;;;;;;;;;27.71;100.00;101659.19;5205599;28;19922;-75
2023/09/10 08:35:57;;;;;;;;;;;;;;;27.79;100.00;101661.59;5205839;28;19917;-74
2023/09/10 08:38:28;;;;;;;;;;;;;;;27.92;100.00;101657.94;5205413;28;20058;-75
2023/09/10 08:40:59;;;;;;;;;;;;;;;28.04;100.00;101656.13;5204663;28;19913;-74
2023/09/10 08:43:39;;;;;;;;;;;;;;;28.16;100.00;101655.38;5205154;28;20781;-75
2023/09/10 08:46:12;;;;;;;;;;;;;;;28.25;99.91;101660.19;5205141;28;20433;-75
2023/09/10 08:48:44;;;;;;;;;;;;;;;28.43;100.00;101663.94;5204861;28;19983;-75
2023/09/10 08:51:15;;;;;;;;;;;;;;;28.53;99.33;101664.22;5204525;28;19916;-75
2023/09/10 08:53:47;;;;;;;;;;;;;;;28.64;96.67;101663.44;5205358;28;20345;-74
2023/09/10 08:56:18;;;;;;;;;;;;;;;28.74;97.73;101666.38;5206057;28;19931;-75
2023/09/10 08:58:50;;;;;;;;;;;;;;;28.89;96.94;101662.41;5185923;28;19999;-75
2023/09/10 09:01:22;;;;;;;;;;;;;;;28.98;95.24;101664.59;5204439;28;20844;-75
2023/09/10 09:03:53;;;;;;;;;;;;;;;29.09;94.11;101671.03;5204843;28;20024;-73
2023/09/10 09:06:28;;;;;;;;;;;;;;;29.19;93.82;101668.56;5205343;28;20058;-75
2023/09/10 09:09:05;;;;;;;;;;;;;;;29.31;90.56;101671.28;5204950;28;19925;-76
2023/09/10 09:11:37;;;;;;;;;;;;;;;29.45;93.06;101670.00;5201597;28;19917;-74
2023/09/10 09:14:09;;;;;;;;;;;;;;;29.60;89.52;101671.41;5204846;28;20256;-74
2023/09/10 09:16:41;;;;;;;;;;;;;;;29.72;90.38;101659.53;5205370;28;20325;-75
2023/09/10 09:19:13;;;;;;;;;;;;;;;29.86;88.22;101656.56;5206273;28;19913;-75
2023/09/10 09:21:46;;;;;;;;;;;;;;;29.96;88.01;101656.75;5204103;28;19932;-75
2023/09/10 09:24:21;;;;;;;;;;;;;;;30.06;87.19;101657.78;5204948;28;19917;-75
2023/09/10 09:26:52;;;;;;;;;;;;;;;30.19;83.82;101651.31;5205027;28;19932;-75
2023/09/10 09:29:23;;;;;;;;;;;;;;;30.30;83.04;101655.00;5203933;28;19918;-75
2023/09/10 09:31:55;;;;;;;;;;;;;;;30.40;83.38;101651.69;5202096;28;20370;-74
2023/09/10 09:34:26;;;;;;;;;;;;;;;30.50;79.83;101651.88;5204821;28;19921;-75
2023/09/10 09:36:57;;;;;;;;;;;;;;;30.61;83.49;101652.84;5204388;28;20650;-74
2023/09/10 09:39:31;;;;;;;;;;;;;;;30.71;78.87;101653.84;5203455;28;19917;-74
2023/09/10 09:42:04;;;;;;;;;;;;;;;30.82;83.04;101646.75;5204290;28;19913;-75
2023/09/10 09:44:36;;;;;;;;;;;;;;;30.87;81.07;101638.72;5204768;28;19924;-74
2023/09/10 09:47:11;;;;;;;;;;;;;;;31.03;78.87;101639.81;5203357;28;19921;-75
2023/09/10 09:49:46;;;;;;;;;;;;;;;31.12;79.61;101638.31;5203644;28;19917;-75
2023/09/10 09:52:18;;;;;;;;;;;;;;;31.25;73.46;101637.97;5205369;28;19949;-74
2023/09/10 09:54:50;;;;;;;;;;;;;;;31.35;77.12;101641.91;5204458;28;19929;-74
2023/09/10 09:57:21;;;;;;;;;;;;;;;31.44;74.68;101632.25;5205832;28;20393;-75
2023/09/10 09:59:53;;;;;;;;;;;;;;;31.50;72.94;101632.09;5204346;28;20659;-75
2023/09/10 10:02:24;;;;;;;;;;;;;;;31.54;65.85;101637.81;5186661;28;19953;-76
2023/09/10 10:04:55;;;;;;;;;;;;;;;31.62;70.74;101631.16;5203917;28;19936;-75
2023/09/10 10:07:28;;;;;;;;;;;;;;;31.69;70.27;101631.78;5203019;28;19921;-75
2023/09/10 10:09:59;;;;;;;;;;;;;;;31.76;69.86;101628.91;5204502;28;19943;-75
2023/09/10 10:12:31;;;;;;;;;;;;;;;31.88;69.07;101632.31;5201176;28;19921;-76
2023/09/10 10:15:02;;;;;;;;;;;;;;;31.97;69.62;101625.34;5203305;28;19917;-75
2023/09/10 10:17:34;;;;;;;;;;;;;;;32.03;67.18;101626.25;5202630;28;19921;-76
2023/09/10 10:20:06;;;;;;;;;;;;;;;32.16;66.88;101628.53;5202597;28;19925;-75
2023/09/10 10:22:37;;;;;;;;;;;;;;;32.22;69.93;101625.63;5206705;28;19921;-75
2023/09/10 10:25:09;;;;;;;;;;;;;;;32.30;67.62;101621.63;5207376;28;19917;-76
2023/09/10 10:27:42;;;;;;;;;;;;;;;32.39;72.04;101616.56;5207602;28;20438;-75
2023/09/10 10:30:13;;;;;;;;;;;;;;;32.47;62.88;101624.28;5210097;28;19921;-75
2023/09/10 10:32:45;;;;;;;;;;;;;;;32.50;62.79;101626.44;5205210;28;19955;-74
2023/09/10 10:35:16;;;;;;;;;;;;;;;32.59;61.26;101614.06;5208690;28;19928;-74
2023/09/10 10:37:48;;;;;;;;;;;;;;;32.76;62.12;101616.63;5207743;28;19917;-75
2023/09/10 10:40:25;;;;;;;;;;;;;;;32.87;60.46;101610.19;5208907;28;20008;-75
2023/09/10 10:43:10;;;;;;;;;;;;;;;32.96;57.98;101618.72;5209047;28;19964;-76
2023/09/10 10:45:44;;;;;;;;;;;;;;;33.02;59.41;101614.13;5208339;28;20478;-75
2023/09/10 10:48:19;;;;;;;;;;;;;;;33.09;55.18;101612.81;5206600;28;19964;-76
2023/09/10 10:50:52;;;;;;;;;;;;;;;33.20;59.74;101610.16;5208760;28;19917;-74
2023/09/10 10:53:23;;;;;;;;;;;;;;;33.21;52.25;101609.91;5207017;28;19918;-75
2023/09/10 10:55:56;;;;;;;;;;;;;;;33.26;59.40;101611.81;5207203;28;19917;-76
2023/09/10 10:58:28;;;;;;;;;;;;;;;33.31;57.49;101604.53;5207543;28;19924;-76
2023/09/10 11:00:59;;;;;;;;;;;;;;;33.34;58.79;101608.63;5207784;28;19920;-75
2023/09/10 11:03:31;;;;;;;;;;;;;;;33.30;51.43;101607.47;5206968;28;19921;-75
2023/09/10 11:06:07;;;;;;;;;;;;;;;33.44;55.95;101600.50;5207904;28;19917;-76
2023/09/10 11:08:46;;;;;;;;;;;;;;;33.57;52.77;101605.50;5207740;28;20068;-76
2023/09/10 11:11:36;;;;;;;;;;;;;;;33.71;56.25;101597.63;5206354;28;19918;-74
2023/09/10 11:14:09;;;;;;;;;;;;;;;33.75;51.30;101598.72;5207840;28;20294;-75
2023/09/10 11:16:43;;;;;;;;;;;;;;;33.79;55.46;101597.13;5207800;28;20177;-76
2023/09/10 11:19:33;;;;;;;;;;;;;;;33.84;55.50;101589.00;5207404;28;20416;-74
2023/09/10 11:22:04;;;;;;;;;;;;;;;33.84;52.80;101594.44;5207066;28;20294;-76
2023/09/10 11:24:36;;;;;;;;;;;;;;;33.96;52.39;101594.19;5207929;28;19933;-76
2023/09/10 11:27:21;;;;;;;;;;;;;;;34.09;49.61;101592.84;5206939;28;19925;-76
2023/09/10 11:30:04;;;;;;;;;;;;;;;34.22;52.29;101597.78;5208306;28;19960;-74
2023/09/10 11:32:36;;;;;;;;;;;;;;;34.31;54.01;101595.34;5206843;28;20387;-74
2023/09/10 11:35:26;;;;;;;;;;;;;;;34.37;53.27;101591.53;5206449;28;19967;-75
2023/09/10 11:37:57;;;;;;;;;;;;;;;34.27;50.66;101588.81;5205797;28;19971;-76
2023/09/10 11:40:28;;;;;;;;;;;;;;;34.30;50.87;101583.63;5207138;28;20063;-74
2023/09/10 11:43:00;;;;;;;;;;;;;;;34.36;47.64;101588.00;5206626;28;19979;-76
2023/09/10 11:45:33;;;;;;;;;;;;;;;34.39;46.47;101587.44;5206204;28;19972;-76
2023/09/10 11:48:06;;;;;;;;;;;;;;;34.45;49.27;101593.72;5206049;28;19917;-75
2023/09/10 11:50:37;;;;;;;;;;;;;;;34.48;45.73;101590.44;5207620;28;20445;-74
2023/09/10 11:53:09;;;;;;;;;;;;;;;34.56;50.18;101591.84;5206889;28;19972;-76
2023/09/10 11:55:40;;;;;;;;;;;;;;;34.55;53.20;101585.59;5206390;28;20013;-76
2023/09/10 11:58:12;;;;;;;;;;;;;;;34.57;52.66;101588.03;5188603;28;19917;-76
2023/09/10 12:00:44;;;;;;;;;;;;;;;34.62;52.73;101582.56;5206805;28;19964;-75
2023/09/10 12:03:15;;;;;;;;;;;;;;;34.74;51.25;101588.56;5206811;28;19917;-76
2023/09/10 12:05:46;;;;;;;;;;;;;;;34.81;47.88;101582.81;5205502;28;19917;-76
2023/09/10 12:08:17;;;;;;;;;;;;;;;34.93;47.76;101591.53;5206347;28;19961;-75
2023/09/10 12:10:49;;;;;;;;;;;;;;;34.98;53.53;101582.50;5205502;28;19932;-76
2023/09/10 12:13:21;;;;;;;;;;;;;;;34.91;50.05;101577.34;5206531;28;19921;-76
2023/09/10 12:15:52;;;;;;;;;;;;;;;34.94;51.10;101576.81;5207560;28;19959;-76
2023/09/10 12:18:24;;;;;;;;;;;;;;;34.88;48.72;101580.63;5205535;28;20016;-75
2023/09/10 12:20:56;;;;;;;;;;;;;;;34.78;50.72;101575.22;5205084;28;19929;-76
2023/09/10 12:23:28;;;;;;;;;;;;;;;34.77;47.43;101577.09;5206510;28;19924;-75
2023/09/10 12:25:59;;;;;;;;;;;;;;;34.86;48.13;101574.66;5189110;28;19921;-74
2023/09/10 12:28:31;;;;;;;;;;;;;;;35.00;49.86;101566.72;5205703;28;19926;-76
2023/09/10 12:31:02;;;;;;;;;;;;;;;35.16;47.96;101572.94;5206588;28;19917;-76
2023/09/10 12:33:34;;;;;;;;;;;;;;;35.21;47.97;101572.94;5206397;28;19917;-75
2023/09/10 12:36:05;;;;;;;;;;;;;;;35.21;48.75;101564.78;5205132;28;20817;-76
2023/09/10 12:38:36;;;;;;;;;;;;;;;35.24;54.08;101570.47;5187930;28;19924;-74
2023/09/10 12:41:07;;;;;;;;;;;;;;;35.30;47.69;101563.91;5205172;28;19921;-76
2023/09/10 12:43:39;;;;;;;;;;;;;;;35.35;48.37;101560.34;5204834;28;19987;-74
2023/09/10 12:46:10;;;;;;;;;;;;;;;35.43;48.66;101553.50;5204309;28;20391;-76
2023/09/10 12:48:42;;;;;;;;;;;;;;;35.41;40.43;101553.78;5205459;28;19976;-75
2023/09/10 12:51:13;;;;;;;;;;;;;;;35.45;41.72;101549.38;5206043;28;19917;-75
2023/09/10 12:53:44;;;;;;;;;;;;;;;35.50;42.47;101552.13;5204378;28;20023;-76
2023/09/10 12:56:16;;;;;;;;;;;;;;;35.51;40.72;101545.59;5204806;28;19940;-76